sensor_id;sensor_type;location;lat;lon;timestamp;temperature;humidity
6756;DHT22;3415;51.148;7.014;2023-05-10T00:01:50;13.00;1.00
6756;DHT22;3415;51.148;7.014;2023-05-10T00:04:17;13.10;1.00
6756;DHT22;3415;51.148;7.014;2023-05-10T00:06:44;13.00;1.00
6756;DHT22;3415;51.148;7.014;2023-05-10T00:09:11;13.10;1.00
6756;DHT22;3415;51.148;7.014;2023-05-10T00:11:37;13.10;1.00
6756;DHT22;3415;51.148;7.014;2023-05-10T00:14:04;13.10;1.00
6756;DHT22;3415;51.148;7.014;2023-05-10T00:16:32;13.10;1.00
6756;DHT22;3415;51.148;7.014;2023-05-10T00:18:59;13.10;1.00
6756;DHT22;3415;51.148;7.014;2023-05-10T00:21:26;13.10;1.00
6756;DHT22;3415;51.148;7.014;2023-05-10T00:23:54;13.20;1.00
6756;DHT22;3415;51.148;7.014;2023-05-10T00:26:20;13.10;1.00
6756;DHT22;3415;51.148;7.014;2023-05-10T00:28:47;13.10;1.00
6756;DHT22;3415;51.148;7.014;2023-05-10T00:31:14;13.10;1.00
6756;DHT22;3415;51.148;7.014;2023-05-10T00:33:42;13.10;1.00
6756;DHT22;3415;51.148;7.014;2023-05-10T00:36:09;13.10;1.00
6756;DHT22;3415;51.148;7.014;2023-05-10T00:38:36;13.10;1.00
6756;DHT22;3415;51.148;7.014;2023-05-10T00:41:03;13.10;1.00
6756;DHT22;3415;51.148;7.014;2023-05-10T00:43:30;13.10;1.00
6756;DHT22;3415;51.148;7.014;2023-05-10T00:45:57;13.00;1.00
6756;DHT22;3415;51.148;7.014;2023-05-10T00:48:24;13.10;1.00
6756;DHT22;3415;51.148;7.014;2023-05-10T00:50:52;13.10;1.00
6756;DHT22;3415;51.148;7.014;2023-05-10T00:53:19;13.10;1.00
6756;DHT22;3415;51.148;7.014;2023-05-10T00:55:46;13.10;1.00
6756;DHT22;3415;51.148;7.014;2023-05-10T00:58:13;13.10;1.00
6756;DHT22;3415;51.148;7.014;2023-05-10T01:00:42;13.10;1.00
6756;DHT22;3415;51.148;7.014;2023-05-10T01:03:10;13.40;1.00
6756;DHT22;3415;51.148;7.014;2023-05-10T01:05:37;13.10;1.00
6756;DHT22;3415;51.148;7.014;2023-05-10T01:08:05;13.10;1.00
6756;DHT22;3415;51.148;7.014;2023-05-10T01:10:34;13.10;1.00
6756;DHT22;3415;51.148;7.014;2023-05-10T01:13:01;13.10;1.00
6756;DHT22;3415;51.148;7.014;2023-05-10T01:15:29;13.10;1.00
6756;DHT22;3415;51.148;7.014;2023-05-10T01:17:56;13.10;1.00
6756;DHT22;3415;51.148;7.014;2023-05-10T01:20:23;13.10;1.00
6756;DHT22;3415;51.148;7.014;2023-05-10T01:23:17;13.10;1.00
6756;DHT22;3415;51.148;7.014;2023-05-10T01:29:19;13.10;1.00
6756;DHT22;3415;51.148;7.014;2023-05-10T01:32:25;13.00;1.00
6756;DHT22;3415;51.148;7.014;2023-05-10T01:34:59;13.10;1.00
6756;DHT22;3415;51.148;7.014;2023-05-10T01:37:33;13.10;1.00
6756;DHT22;3415;51.148;7.014;2023-05-10T01:40:10;13.10;1.00
6756;DHT22;3415;51.148;7.014;2023-05-10T01:42:43;13.10;1.00
6756;DHT22;3415;51.148;7.014;2023-05-10T01:45:19;13.10;1.00
6756;DHT22;3415;51.148;7.014;2023-05-10T01:47:52;13.10;1.00
6756;DHT22;3415;51.148;7.014;2023-05-10T01:50:24;13.10;1.00
6756;DHT22;3415;51.148;7.014;2023-05-10T01:52:56;13.10;1.00
6756;DHT22;3415;51.148;7.014;2023-05-10T01:55:26;13.00;1.00
6756;DHT22;3415;51.148;7.014;2023-05-10T01:58:00;12.90;1.00
6756;DHT22;3415;51.148;7.014;2023-05-10T02:00:29;12.90;1.00
6756;DHT22;3415;51.148;7.014;2023-05-10T02:03:00;13.00;1.00
6756;DHT22;3415;51.148;7.014;2023-05-10T02:05:29;12.80;1.00
6756;DHT22;3415;51.148;7.014;2023-05-10T02:07:59;12.80;1.00
6756;DHT22;3415;51.148;7.014;2023-05-10T02:10:27;12.90;1.00
6756;DHT22;3415;51.148;7.014;2023-05-10T02:12:55;12.80;1.00
6756;DHT22;3415;51.148;7.014;2023-05-10T02:15:25;12.80;1.00
6756;DHT22;3415;51.148;7.014;2023-05-10T02:17:55;12.80;1.00
6756;DHT22;3415;51.148;7.014;2023-05-10T02:20:24;12.80;1.00
6756;DHT22;3415;51.148;7.014;2023-05-10T02:22:54;12.90;1.00
6756;DHT22;3415;51.148;7.014;2023-05-10T02:25:22;12.80;1.00
6756;DHT22;3415;51.148;7.014;2023-05-10T02:27:50;12.80;1.00
6756;DHT22;3415;51.148;7.014;2023-05-10T02:30:18;15.40;1.00
6756;DHT22;3415;51.148;7.014;2023-05-10T02:32:46;12.80;1.00
6756;DHT22;3415;51.148;7.014;2023-05-10T02:35:13;12.80;1.00
6756;DHT22;3415;51.148;7.014;2023-05-10T02:37:44;12.70;1.00
6756;DHT22;3415;51.148;7.014;2023-05-10T02:40:12;12.80;1.00
6756;DHT22;3415;51.148;7.014;2023-05-10T02:42:41;12.70;1.00
6756;DHT22;3415;51.148;7.014;2023-05-10T02:45:12;12.70;1.00
6756;DHT22;3415;51.148;7.014;2023-05-10T02:47:39;12.70;1.00
6756;DHT22;3415;51.148;7.014;2023-05-10T02:50:07;12.80;1.00
6756;DHT22;3415;51.148;7.014;2023-05-10T02:52:39;12.60;1.00
6756;DHT22;3415;51.148;7.014;2023-05-10T02:55:09;12.70;1.00
6756;DHT22;3415;51.148;7.014;2023-05-10T02:57:41;12.70;1.00
6756;DHT22;3415;51.148;7.014;2023-05-10T03:00:10;12.70;1.00
6756;DHT22;3415;51.148;7.014;2023-05-10T03:02:37;12.70;1.00
6756;DHT22;3415;51.148;7.014;2023-05-10T03:05:04;12.70;1.00
6756;DHT22;3415;51.148;7.014;2023-05-10T03:07:32;12.70;1.00
6756;DHT22;3415;51.148;7.014;2023-05-10T03:10:00;12.70;1.00
6756;DHT22;3415;51.148;7.014;2023-05-10T03:12:47;12.70;1.00
6756;DHT22;3415;51.148;7.014;2023-05-10T03:15:22;12.90;1.00
6756;DHT22;3415;51.148;7.014;2023-05-10T03:17:55;12.70;1.00
6756;DHT22;3415;51.148;7.014;2023-05-10T03:20:26;12.70;1.00
6756;DHT22;3415;51.148;7.014;2023-05-10T03:23:00;12.70;1.00
6756;DHT22;3415;51.148;7.014;2023-05-10T03:25:29;12.70;1.00
6756;DHT22;3415;51.148;7.014;2023-05-10T03:28:01;12.80;1.00
6756;DHT22;3415;51.148;7.014;2023-05-10T03:30:28;12.80;1.00
6756;DHT22;3415;51.148;7.014;2023-05-10T03:32:55;12.80;1.00
6756;DHT22;3415;51.148;7.014;2023-05-10T03:35:23;12.80;1.00
6756;DHT22;3415;51.148;7.014;2023-05-10T03:37:50;12.80;1.00
6756;DHT22;3415;51.148;7.014;2023-05-10T03:40:17;12.80;1.00
6756;DHT22;3415;51.148;7.014;2023-05-10T03:42:44;12.80;1.00
6756;DHT22;3415;51.148;7.014;2023-05-10T03:45:12;12.90;1.00
6756;DHT22;3415;51.148;7.014;2023-05-10T03:47:39;11.50;1.00
6756;DHT22;3415;51.148;7.014;2023-05-10T03:50:07;12.90;1.00
6756;DHT22;3415;51.148;7.014;2023-05-10T03:52:34;12.80;1.00
6756;DHT22;3415;51.148;7.014;2023-05-10T03:55:00;12.80;1.00
6756;DHT22;3415;51.148;7.014;2023-05-10T03:57:29;12.80;1.00
6756;DHT22;3415;51.148;7.014;2023-05-10T03:59:55;12.90;1.00
6756;DHT22;3415;51.148;7.014;2023-05-10T04:02:23;13.00;1.00
6756;DHT22;3415;51.148;7.014;2023-05-10T04:04:50;12.90;1.00
6756;DHT22;3415;51.148;7.014;2023-05-10T04:07:17;12.80;1.00
6756;DHT22;3415;51.148;7.014;2023-05-10T04:09:44;12.90;1.00
6756;DHT22;3415;51.148;7.014;2023-05-10T04:12:11;12.90;1.00
6756;DHT22;3415;51.148;7.014;2023-05-10T04:14:38;12.90;1.00
6756;DHT22;3415;51.148;7.014;2023-05-10T04:17:05;12.90;1.00
6756;DHT22;3415;51.148;7.014;2023-05-10T04:19:33;12.90;1.00
6756;DHT22;3415;51.148;7.014;2023-05-10T04:22:01;12.90;1.00
6756;DHT22;3415;51.148;7.014;2023-05-10T04:24:28;12.90;1.00
6756;DHT22;3415;51.148;7.014;2023-05-10T04:26:55;12.90;1.00
6756;DHT22;3415;51.148;7.014;2023-05-10T04:29:22;13.10;1.00
6756;DHT22;3415;51.148;7.014;2023-05-10T04:31:49;13.00;1.00
6756;DHT22;3415;51.148;7.014;2023-05-10T04:34:16;13.00;1.00
6756;DHT22;3415;51.148;7.014;2023-05-10T04:36:44;12.90;1.00
6756;DHT22;3415;51.148;7.014;2023-05-10T04:39:11;13.00;1.00
6756;DHT22;3415;51.148;7.014;2023-05-10T04:41:39;13.00;1.00
6756;DHT22;3415;51.148;7.014;2023-05-10T04:44:06;13.00;1.00
6756;DHT22;3415;51.148;7.014;2023-05-10T04:46:32;13.00;1.00
6756;DHT22;3415;51.148;7.014;2023-05-10T04:48:59;12.90;1.00
6756;DHT22;3415;51.148;7.014;2023-05-10T04:51:26;12.90;1.00
6756;DHT22;3415;51.148;7.014;2023-05-10T04:53:54;13.20;1.00
6756;DHT22;3415;51.148;7.014;2023-05-10T04:56:21;13.00;1.00
6756;DHT22;3415;51.148;7.014;2023-05-10T04:58:48;13.00;1.00
6756;DHT22;3415;51.148;7.014;2023-05-10T05:01:15;13.00;1.00
6756;DHT22;3415;51.148;7.014;2023-05-10T05:03:42;13.00;1.00
6756;DHT22;3415;51.148;7.014;2023-05-10T05:06:09;13.00;1.00
6756;DHT22;3415;51.148;7.014;2023-05-10T05:08:36;13.10;1.00
6756;DHT22;3415;51.148;7.014;2023-05-10T05:11:04;13.20;1.00
6756;DHT22;3415;51.148;7.014;2023-05-10T05:13:31;13.10;1.00
6756;DHT22;3415;51.148;7.014;2023-05-10T05:16:00;13.10;1.00
6756;DHT22;3415;51.148;7.014;2023-05-10T05:18:27;13.10;1.00
6756;DHT22;3415;51.148;7.014;2023-05-10T05:20:54;13.20;1.00
6756;DHT22;3415;51.148;7.014;2023-05-10T05:23:21;13.20;1.00
6756;DHT22;3415;51.148;7.014;2023-05-10T05:25:51;13.20;1.00
6756;DHT22;3415;51.148;7.014;2023-05-10T05:28:19;13.30;1.00
6756;DHT22;3415;51.148;7.014;2023-05-10T05:30:46;13.30;1.00
6756;DHT22;3415;51.148;7.014;2023-05-10T05:33:13;13.40;1.00
6756;DHT22;3415;51.148;7.014;2023-05-10T05:35:41;13.40;1.00
6756;DHT22;3415;51.148;7.014;2023-05-10T05:38:13;13.40;1.00
6756;DHT22;3415;51.148;7.014;2023-05-10T05:40:39;13.40;1.00
6756;DHT22;3415;51.148;7.014;2023-05-10T05:43:06;13.50;1.00
6756;DHT22;3415;51.148;7.014;2023-05-10T05:45:34;13.50;1.00
6756;DHT22;3415;51.148;7.014;2023-05-10T05:48:01;13.50;1.00
6756;DHT22;3415;51.148;7.014;2023-05-10T05:50:28;13.50;1.00
6756;DHT22;3415;51.148;7.014;2023-05-10T05:52:55;13.50;1.00
6756;DHT22;3415;51.148;7.014;2023-05-10T05:55:22;13.50;1.00
6756;DHT22;3415;51.148;7.014;2023-05-10T05:57:51;13.50;1.00
6756;DHT22;3415;51.148;7.014;2023-05-10T06:00:18;13.70;1.00
6756;DHT22;3415;51.148;7.014;2023-05-10T06:02:46;13.30;1.00
6756;DHT22;3415;51.148;7.014;2023-05-10T06:05:13;13.30;1.00
6756;DHT22;3415;51.148;7.014;2023-05-10T06:07:40;13.20;1.00
6756;DHT22;3415;51.148;7.014;2023-05-10T06:10:07;13.20;1.00
6756;DHT22;3415;51.148;7.014;2023-05-10T06:12:34;13.30;1.00
6756;DHT22;3415;51.148;7.014;2023-05-10T06:15:01;13.30;1.00
6756;DHT22;3415;51.148;7.014;2023-05-10T06:17:28;13.30;1.00
6756;DHT22;3415;51.148;7.014;2023-05-10T06:19:56;13.30;1.00
6756;DHT22;3415;51.148;7.014;2023-05-10T06:22:23;13.30;1.00
6756;DHT22;3415;51.148;7.014;2023-05-10T06:24:50;13.20;1.00
6756;DHT22;3415;51.148;7.014;2023-05-10T06:27:17;13.30;1.00
6756;DHT22;3415;51.148;7.014;2023-05-10T06:29:44;13.40;1.00
6756;DHT22;3415;51.148;7.014;2023-05-10T06:32:10;13.40;1.00
6756;DHT22;3415;51.148;7.014;2023-05-10T06:34:37;13.40;1.00
6756;DHT22;3415;51.148;7.014;2023-05-10T06:37:05;13.30;1.00
6756;DHT22;3415;51.148;7.014;2023-05-10T06:39:32;13.30;1.00
6756;DHT22;3415;51.148;7.014;2023-05-10T06:41:59;13.30;1.00
6756;DHT22;3415;51.148;7.014;2023-05-10T06:44:27;13.20;1.00
6756;DHT22;3415;51.148;7.014;2023-05-10T06:46:54;13.20;1.00
6756;DHT22;3415;51.148;7.014;2023-05-10T06:49:21;13.20;1.00
6756;DHT22;3415;51.148;7.014;2023-05-10T06:51:48;13.20;1.00
6756;DHT22;3415;51.148;7.014;2023-05-10T06:54:16;13.30;1.00
6756;DHT22;3415;51.148;7.014;2023-05-10T06:56:43;13.30;1.00
6756;DHT22;3415;51.148;7.014;2023-05-10T06:59:10;13.20;1.00
6756;DHT22;3415;51.148;7.014;2023-05-10T07:01:37;13.20;1.00
6756;DHT22;3415;51.148;7.014;2023-05-10T07:04:04;13.20;1.00
6756;DHT22;3415;51.148;7.014;2023-05-10T07:06:33;13.10;1.00
6756;DHT22;3415;51.148;7.014;2023-05-10T07:09:00;13.20;1.00
6756;DHT22;3415;51.148;7.014;2023-05-10T07:11:28;13.20;1.00
6756;DHT22;3415;51.148;7.014;2023-05-10T07:13:55;13.20;1.00
6756;DHT22;3415;51.148;7.014;2023-05-10T07:16:21;13.10;1.00
6756;DHT22;3415;51.148;7.014;2023-05-10T07:18:48;13.10;1.00
6756;DHT22;3415;51.148;7.014;2023-05-10T07:21:16;13.00;1.00
6756;DHT22;3415;51.148;7.014;2023-05-10T07:23:42;13.00;1.00
6756;DHT22;3415;51.148;7.014;2023-05-10T07:26:09;13.10;1.00
6756;DHT22;3415;51.148;7.014;2023-05-10T07:28:38;13.40;1.00
6756;DHT22;3415;51.148;7.014;2023-05-10T07:31:06;13.60;1.00
6756;DHT22;3415;51.148;7.014;2023-05-10T07:33:33;13.30;1.00
6756;DHT22;3415;51.148;7.014;2023-05-10T07:36:00;13.40;1.00
6756;DHT22;3415;51.148;7.014;2023-05-10T07:38:26;13.70;1.00
6756;DHT22;3415;51.148;7.014;2023-05-10T07:40:53;13.60;1.00
6756;DHT22;3415;51.148;7.014;2023-05-10T07:43:20;13.60;1.00
6756;DHT22;3415;51.148;7.014;2023-05-10T07:45:48;13.70;1.00
6756;DHT22;3415;51.148;7.014;2023-05-10T07:48:15;13.80;1.00
6756;DHT22;3415;51.148;7.014;2023-05-10T07:50:42;13.90;1.00
6756;DHT22;3415;51.148;7.014;2023-05-10T07:53:09;13.90;99.90
6756;DHT22;3415;51.148;7.014;2023-05-10T07:55:36;13.90;99.90
6756;DHT22;3415;51.148;7.014;2023-05-10T07:58:03;13.90;99.90
6756;DHT22;3415;51.148;7.014;2023-05-10T08:00:30;13.90;99.90
6756;DHT22;3415;51.148;7.014;2023-05-10T08:02:58;14.00;99.90
6756;DHT22;3415;51.148;7.014;2023-05-10T08:05:25;14.20;99.90
6756;DHT22;3415;51.148;7.014;2023-05-10T08:07:51;14.20;99.90
6756;DHT22;3415;51.148;7.014;2023-05-10T08:10:18;14.30;99.90
6756;DHT22;3415;51.148;7.014;2023-05-10T08:12:45;14.30;99.90
6756;DHT22;3415;51.148;7.014;2023-05-10T08:15:12;14.30;99.90
6756;DHT22;3415;51.148;7.014;2023-05-10T08:17:39;14.40;99.90
6756;DHT22;3415;51.148;7.014;2023-05-10T08:20:08;14.50;99.90
6756;DHT22;3415;51.148;7.014;2023-05-10T08:22:36;14.60;99.90
6756;DHT22;3415;51.148;7.014;2023-05-10T08:25:03;14.60;99.90
6756;DHT22;3415;51.148;7.014;2023-05-10T08:27:30;14.70;99.90
6756;DHT22;3415;51.148;7.014;2023-05-10T08:29:57;15.20;99.90
6756;DHT22;3415;51.148;7.014;2023-05-10T08:32:24;14.90;99.90
6756;DHT22;3415;51.148;7.014;2023-05-10T08:37:19;14.90;99.90
6756;DHT22;3415;51.148;7.014;2023-05-10T08:39:46;14.90;99.90
6756;DHT22;3415;51.148;7.014;2023-05-10T08:42:19;14.60;99.90
6756;DHT22;3415;51.148;7.014;2023-05-10T08:44:48;14.50;99.90
6756;DHT22;3415;51.148;7.014;2023-05-10T08:47:16;14.30;99.90
6756;DHT22;3415;51.148;7.014;2023-05-10T08:49:47;14.30;99.90
6756;DHT22;3415;51.148;7.014;2023-05-10T08:52:19;14.10;99.90
6756;DHT22;3415;51.148;7.014;2023-05-10T08:54:49;14.10;99.90
6756;DHT22;3415;51.148;7.014;2023-05-10T08:57:18;14.20;99.90
6756;DHT22;3415;51.148;7.014;2023-05-10T08:59:46;14.50;99.90
6756;DHT22;3415;51.148;7.014;2023-05-10T09:02:13;14.60;99.90
6756;DHT22;3415;51.148;7.014;2023-05-10T09:04:43;14.60;99.90
6756;DHT22;3415;51.148;7.014;2023-05-10T09:07:11;14.50;99.90
6756;DHT22;3415;51.148;7.014;2023-05-10T09:09:43;14.50;99.90
6756;DHT22;3415;51.148;7.014;2023-05-10T09:12:12;14.60;99.90
6756;DHT22;3415;51.148;7.014;2023-05-10T09:14:42;14.80;99.90
6756;DHT22;3415;51.148;7.014;2023-05-10T09:17:11;14.80;99.90
6756;DHT22;3415;51.148;7.014;2023-05-10T09:19:38;15.00;99.90
6756;DHT22;3415;51.148;7.014;2023-05-10T09:22:05;15.00;99.90
6756;DHT22;3415;51.148;7.014;2023-05-10T09:24:31;15.20;99.90
6756;DHT22;3415;51.148;7.014;2023-05-10T09:27:01;15.30;99.90
6756;DHT22;3415;51.148;7.014;2023-05-10T09:29:39;15.00;99.90
6756;DHT22;3415;51.148;7.014;2023-05-10T09:32:06;14.70;99.90
6756;DHT22;3415;51.148;7.014;2023-05-10T09:34:33;14.60;99.90
6756;DHT22;3415;51.148;7.014;2023-05-10T09:37:02;14.60;99.90
6756;DHT22;3415;51.148;7.014;2023-05-10T09:39:33;14.50;99.90
6756;DHT22;3415;51.148;7.014;2023-05-10T09:42:02;14.30;99.90
6756;DHT22;3415;51.148;7.014;2023-05-10T09:44:30;14.20;99.90
6756;DHT22;3415;51.148;7.014;2023-05-10T09:46:57;14.10;99.90
6756;DHT22;3415;51.148;7.014;2023-05-10T09:49:24;14.00;99.90
6756;DHT22;3415;51.148;7.014;2023-05-10T09:52:01;14.00;99.90
6756;DHT22;3415;51.148;7.014;2023-05-10T09:54:28;14.00;99.90
6756;DHT22;3415;51.148;7.014;2023-05-10T09:56:55;14.10;99.90
6756;DHT22;3415;51.148;7.014;2023-05-10T09:59:25;14.00;99.90
6756;DHT22;3415;51.148;7.014;2023-05-10T10:01:53;13.90;99.90
6756;DHT22;3415;51.148;7.014;2023-05-10T10:04:22;14.00;99.90
6756;DHT22;3415;51.148;7.014;2023-05-10T10:06:59;14.00;99.90
6756;DHT22;3415;51.148;7.014;2023-05-10T10:09:26;14.10;99.90
6756;DHT22;3415;51.148;7.014;2023-05-10T10:11:54;13.90;99.90
6756;DHT22;3415;51.148;7.014;2023-05-10T10:14:21;14.00;99.90
6756;DHT22;3415;51.148;7.014;2023-05-10T10:16:50;14.00;99.90
6756;DHT22;3415;51.148;7.014;2023-05-10T10:19:18;14.20;99.90
6756;DHT22;3415;51.148;7.014;2023-05-10T10:21:45;14.40;99.90
6756;DHT22;3415;51.148;7.014;2023-05-10T10:24:12;14.70;99.90
6756;DHT22;3415;51.148;7.014;2023-05-10T10:26:39;14.80;99.90
6756;DHT22;3415;51.148;7.014;2023-05-10T10:29:18;15.10;99.90
6756;DHT22;3415;51.148;7.014;2023-05-10T10:31:47;15.40;99.90
6756;DHT22;3415;51.148;7.014;2023-05-10T10:34:25;15.90;99.90
6756;DHT22;3415;51.148;7.014;2023-05-10T10:36:54;16.80;99.90
6756;DHT22;3415;51.148;7.014;2023-05-10T10:39:22;16.60;3.70
6756;DHT22;3415;51.148;7.014;2023-05-10T10:41:51;16.30;1.00
6756;DHT22;3415;51.148;7.014;2023-05-10T10:44:38;16.60;1.00
6756;DHT22;3415;51.148;7.014;2023-05-10T10:47:10;15.80;1.00
6756;DHT22;3415;51.148;7.014;2023-05-10T10:49:51;15.70;1.00
6756;DHT22;3415;51.148;7.014;2023-05-10T10:52:23;15.80;1.00
6756;DHT22;3415;51.148;7.014;2023-05-10T10:54:53;15.80;2.60
6756;DHT22;3415;51.148;7.014;2023-05-10T10:57:25;15.90;1.00
6756;DHT22;3415;51.148;7.014;2023-05-10T11:02:43;15.80;1.00
6756;DHT22;3415;51.148;7.014;2023-05-10T11:05:37;15.60;1.00
6756;DHT22;3415;51.148;7.014;2023-05-10T11:08:13;15.60;1.00
6756;DHT22;3415;51.148;7.014;2023-05-10T11:10:48;16.20;1.00
6756;DHT22;3415;51.148;7.014;2023-05-10T11:13:27;16.20;1.00
6756;DHT22;3415;51.148;7.014;2023-05-10T11:15:54;16.40;1.00
6756;DHT22;3415;51.148;7.014;2023-05-10T11:18:25;16.60;1.00
6756;DHT22;3415;51.148;7.014;2023-05-10T11:20:56;16.30;1.00
6756;DHT22;3415;51.148;7.014;2023-05-10T11:23:28;16.00;1.00
6756;DHT22;3415;51.148;7.014;2023-05-10T11:25:55;15.60;1.00
6756;DHT22;3415;51.148;7.014;2023-05-10T11:28:23;15.40;1.00
6756;DHT22;3415;51.148;7.014;2023-05-10T11:30:50;15.40;1.00
6756;DHT22;3415;51.148;7.014;2023-05-10T11:33:18;15.60;1.00
6756;DHT22;3415;51.148;7.014;2023-05-10T11:35:46;15.60;1.00
6756;DHT22;3415;51.148;7.014;2023-05-10T11:38:14;15.90;1.00
6756;DHT22;3415;51.148;7.014;2023-05-10T11:40:41;16.50;1.00
6756;DHT22;3415;51.148;7.014;2023-05-10T11:43:09;16.50;1.00
6756;DHT22;3415;51.148;7.014;2023-05-10T11:45:36;16.70;1.00
6756;DHT22;3415;51.148;7.014;2023-05-10T11:48:03;16.90;1.00
6756;DHT22;3415;51.148;7.014;2023-05-10T11:50:31;16.90;1.00
6756;DHT22;3415;51.148;7.014;2023-05-10T11:52:58;16.60;1.00
6756;DHT22;3415;51.148;7.014;2023-05-10T11:55:26;16.30;1.00
6756;DHT22;3415;51.148;7.014;2023-05-10T11:57:59;16.20;1.00
6756;DHT22;3415;51.148;7.014;2023-05-10T12:00:26;15.90;1.00
6756;DHT22;3415;51.148;7.014;2023-05-10T12:02:53;16.20;1.00
6756;DHT22;3415;51.148;7.014;2023-05-10T12:05:20;15.80;1.00
6756;DHT22;3415;51.148;7.014;2023-05-10T12:07:47;16.00;1.00
6756;DHT22;3415;51.148;7.014;2023-05-10T12:10:14;16.10;1.00
6756;DHT22;3415;51.148;7.014;2023-05-10T12:12:45;16.40;1.00
6756;DHT22;3415;51.148;7.014;2023-05-10T12:15:17;16.00;1.00
6756;DHT22;3415;51.148;7.014;2023-05-10T12:17:44;16.00;1.00
6756;DHT22;3415;51.148;7.014;2023-05-10T12:20:16;16.20;1.00
6756;DHT22;3415;51.148;7.014;2023-05-10T12:22:45;15.70;1.00
6756;DHT22;3415;51.148;7.014;2023-05-10T12:25:12;15.40;1.00
6756;DHT22;3415;51.148;7.014;2023-05-10T12:27:39;15.50;1.00
6756;DHT22;3415;51.148;7.014;2023-05-10T12:30:08;15.50;1.00
6756;DHT22;3415;51.148;7.014;2023-05-10T12:32:39;15.40;1.00
6756;DHT22;3415;51.148;7.014;2023-05-10T12:35:07;15.50;1.00
6756;DHT22;3415;51.148;7.014;2023-05-10T12:37:35;15.10;1.00
6756;DHT22;3415;51.148;7.014;2023-05-10T12:40:06;15.00;1.00
6756;DHT22;3415;51.148;7.014;2023-05-10T12:42:33;15.00;1.00
6756;DHT22;3415;51.148;7.014;2023-05-10T12:45:01;15.10;1.00
6756;DHT22;3415;51.148;7.014;2023-05-10T12:47:29;15.30;1.00
6756;DHT22;3415;51.148;7.014;2023-05-10T12:49:56;15.50;1.00
6756;DHT22;3415;51.148;7.014;2023-05-10T12:52:23;15.50;1.00
6756;DHT22;3415;51.148;7.014;2023-05-10T12:54:51;15.70;1.00
6756;DHT22;3415;51.148;7.014;2023-05-10T12:57:18;15.60;1.00
6756;DHT22;3415;51.148;7.014;2023-05-10T12:59:45;15.70;1.00
6756;DHT22;3415;51.148;7.014;2023-05-10T13:02:12;16.00;1.00
6756;DHT22;3415;51.148;7.014;2023-05-10T13:04:41;16.10;1.00
6756;DHT22;3415;51.148;7.014;2023-05-10T13:07:08;16.00;1.00
6756;DHT22;3415;51.148;7.014;2023-05-10T13:09:35;16.10;1.00
6756;DHT22;3415;51.148;7.014;2023-05-10T13:12:02;16.00;1.00
6756;DHT22;3415;51.148;7.014;2023-05-10T13:14:29;15.90;1.00
6756;DHT22;3415;51.148;7.014;2023-05-10T13:16:56;16.20;1.00
6756;DHT22;3415;51.148;7.014;2023-05-10T13:19:23;16.20;1.00
6756;DHT22;3415;51.148;7.014;2023-05-10T13:21:51;16.00;1.00
6756;DHT22;3415;51.148;7.014;2023-05-10T13:24:18;15.90;1.00
6756;DHT22;3415;51.148;7.014;2023-05-10T13:26:45;15.80;1.00
6756;DHT22;3415;51.148;7.014;2023-05-10T13:29:12;15.80;1.00
6756;DHT22;3415;51.148;7.014;2023-05-10T13:31:38;15.50;1.00
6756;DHT22;3415;51.148;7.014;2023-05-10T13:34:05;15.40;1.00
6756;DHT22;3415;51.148;7.014;2023-05-10T13:36:32;15.30;1.00
6756;DHT22;3415;51.148;7.014;2023-05-10T13:39:00;15.50;1.00
6756;DHT22;3415;51.148;7.014;2023-05-10T13:41:28;15.30;1.00
6756;DHT22;3415;51.148;7.014;2023-05-10T13:43:55;15.30;1.00
6756;DHT22;3415;51.148;7.014;2023-05-10T13:46:22;15.30;1.00
6756;DHT22;3415;51.148;7.014;2023-05-10T13:48:49;15.40;1.00
6756;DHT22;3415;51.148;7.014;2023-05-10T13:51:16;15.60;1.00
6756;DHT22;3415;51.148;7.014;2023-05-10T13:53:43;15.60;1.00
6756;DHT22;3415;51.148;7.014;2023-05-10T13:56:11;15.70;1.00
6756;DHT22;3415;51.148;7.014;2023-05-10T13:58:38;16.00;1.00
6756;DHT22;3415;51.148;7.014;2023-05-10T14:01:05;16.00;1.00
6756;DHT22;3415;51.148;7.014;2023-05-10T14:03:32;16.20;1.00
6756;DHT22;3415;51.148;7.014;2023-05-10T14:05:59;16.40;1.00
6756;DHT22;3415;51.148;7.014;2023-05-10T14:08:25;16.60;1.00
6756;DHT22;3415;51.148;7.014;2023-05-10T14:10:53;16.90;1.00
6756;DHT22;3415;51.148;7.014;2023-05-10T14:13:23;17.00;1.00
6756;DHT22;3415;51.148;7.014;2023-05-10T14:15:53;17.20;1.00
6756;DHT22;3415;51.148;7.014;2023-05-10T14:18:20;17.20;1.00
6756;DHT22;3415;51.148;7.014;2023-05-10T14:20:47;17.00;1.00
6756;DHT22;3415;51.148;7.014;2023-05-10T14:23:14;16.90;1.00
6756;DHT22;3415;51.148;7.014;2023-05-10T14:25:41;17.10;1.00
6756;DHT22;3415;51.148;7.014;2023-05-10T14:28:08;17.10;1.00
6756;DHT22;3415;51.148;7.014;2023-05-10T14:30:36;17.00;1.00
6756;DHT22;3415;51.148;7.014;2023-05-10T14:33:03;17.20;1.00
6756;DHT22;3415;51.148;7.014;2023-05-10T14:35:30;17.00;1.00
6756;DHT22;3415;51.148;7.014;2023-05-10T14:37:57;16.90;1.00
6756;DHT22;3415;51.148;7.014;2023-05-10T14:40:24;16.80;1.00
6756;DHT22;3415;51.148;7.014;2023-05-10T14:42:51;16.90;1.00
6756;DHT22;3415;51.148;7.014;2023-05-10T14:45:18;16.90;1.00
6756;DHT22;3415;51.148;7.014;2023-05-10T14:47:47;16.60;1.00
6756;DHT22;3415;51.148;7.014;2023-05-10T14:50:14;16.50;1.00
6756;DHT22;3415;51.148;7.014;2023-05-10T14:52:42;16.20;1.00
6756;DHT22;3415;51.148;7.014;2023-05-10T14:55:09;16.00;1.00
6756;DHT22;3415;51.148;7.014;2023-05-10T14:57:36;15.90;1.00
6756;DHT22;3415;51.148;7.014;2023-05-10T15:00:03;15.70;1.00
6756;DHT22;3415;51.148;7.014;2023-05-10T15:02:30;15.70;1.00
6756;DHT22;3415;51.148;7.014;2023-05-10T15:04:59;15.60;1.00
6756;DHT22;3415;51.148;7.014;2023-05-10T15:07:25;15.60;1.00
6756;DHT22;3415;51.148;7.014;2023-05-10T15:09:52;15.50;1.00
6756;DHT22;3415;51.148;7.014;2023-05-10T15:12:19;15.40;1.00
6756;DHT22;3415;51.148;7.014;2023-05-10T15:14:46;15.50;1.00
6756;DHT22;3415;51.148;7.014;2023-05-10T15:17:13;15.60;1.00
6756;DHT22;3415;51.148;7.014;2023-05-10T15:19:41;15.60;1.00
6756;DHT22;3415;51.148;7.014;2023-05-10T15:22:10;15.80;1.00
6756;DHT22;3415;51.148;7.014;2023-05-10T15:24:36;15.80;1.00
6756;DHT22;3415;51.148;7.014;2023-05-10T15:27:03;15.90;1.00
6756;DHT22;3415;51.148;7.014;2023-05-10T15:29:30;16.30;1.00
6756;DHT22;3415;51.148;7.014;2023-05-10T15:31:57;16.30;1.00
6756;DHT22;3415;51.148;7.014;2023-05-10T15:34:24;16.60;1.00
6756;DHT22;3415;51.148;7.014;2023-05-10T15:36:51;16.70;1.00
6756;DHT22;3415;51.148;7.014;2023-05-10T15:39:19;17.00;1.00
6756;DHT22;3415;51.148;7.014;2023-05-10T15:41:46;16.90;1.00
6756;DHT22;3415;51.148;7.014;2023-05-10T15:44:14;17.00;1.00
6756;DHT22;3415;51.148;7.014;2023-05-10T15:46:41;16.80;1.00
6756;DHT22;3415;51.148;7.014;2023-05-10T15:49:07;16.70;1.00
6756;DHT22;3415;51.148;7.014;2023-05-10T15:51:34;16.80;1.00
6756;DHT22;3415;51.148;7.014;2023-05-10T15:54:01;16.90;1.00
6756;DHT22;3415;51.148;7.014;2023-05-10T15:56:29;16.90;1.00
6756;DHT22;3415;51.148;7.014;2023-05-10T15:58:56;16.90;1.00
6756;DHT22;3415;51.148;7.014;2023-05-10T16:01:23;17.20;1.00
6756;DHT22;3415;51.148;7.014;2023-05-10T16:03:50;17.00;1.00
6756;DHT22;3415;51.148;7.014;2023-05-10T16:06:17;16.90;1.00
6756;DHT22;3415;51.148;7.014;2023-05-10T16:08:44;16.80;1.00
6756;DHT22;3415;51.148;7.014;2023-05-10T16:11:10;16.70;1.00
6756;DHT22;3415;51.148;7.014;2023-05-10T16:13:39;16.60;1.00
6756;DHT22;3415;51.148;7.014;2023-05-10T16:16:06;16.60;1.00
6756;DHT22;3415;51.148;7.014;2023-05-10T16:18:34;16.50;1.00
6756;DHT22;3415;51.148;7.014;2023-05-10T16:21:01;16.80;1.00
6756;DHT22;3415;51.148;7.014;2023-05-10T16:23:27;16.70;1.00
6756;DHT22;3415;51.148;7.014;2023-05-10T16:25:55;16.80;1.00
6756;DHT22;3415;51.148;7.014;2023-05-10T16:28:21;16.80;1.00
6756;DHT22;3415;51.148;7.014;2023-05-10T16:30:50;17.00;1.00